createdAt,value
2022-08-19T00:01:28.958Z,4.80
2022-08-19T00:03:59.093Z,4.50
2022-08-19T00:06:27.502Z,4.55
2022-08-19T00:08:56.413Z,4.47
2022-08-19T00:11:25.979Z,4.45
2022-08-19T00:13:57.468Z,4.55
2022-08-19T00:16:27.022Z,4.53
2022-08-19T00:18:56.593Z,4.55
2022-08-19T00:21:26.708Z,4.93
2022-08-19T00:23:55.193Z,4.95
2022-08-19T00:26:23.520Z,5.00
2022-08-19T00:28:51.870Z,4.80
2022-08-19T00:31:21.752Z,5.00
2022-08-19T00:33:54.183Z,5.68
2022-08-19T00:36:22.861Z,5.68
2022-08-19T00:38:52.622Z,4.85
2022-08-19T00:41:22.469Z,6.03
2022-08-19T00:44:02.325Z,5.43
2022-08-19T00:46:32.572Z,5.30
2022-08-19T00:49:01.549Z,5.32
2022-08-19T00:51:30.737Z,5.40
2022-08-19T00:54:01.450Z,5.35
2022-08-19T00:56:29.776Z,5.32
2022-08-19T00:58:59.264Z,6.05
2022-08-19T01:01:28.266Z,5.68
2022-08-19T01:03:58.809Z,6.72
2022-08-19T01:06:27.358Z,6.07
2022-08-19T01:08:56.589Z,6.32
2022-08-19T01:11:24.967Z,6.38
2022-08-19T01:13:54.841Z,7.10
2022-08-19T01:16:24.273Z,6.63
2022-08-19T01:18:54.971Z,7.82
2022-08-19T01:21:26.819Z,9.15
2022-08-19T01:23:56.552Z,7.82
2022-08-19T01:26:25.882Z,9.10
2022-08-19T01:28:56.149Z,9.73
2022-08-19T01:31:31.432Z,10.75
2022-08-19T01:34:04.014Z,11.50
2022-08-19T01:36:33.348Z,11.68
2022-08-19T01:39:03.411Z,11.77
2022-08-19T01:41:31.750Z,11.88
2022-08-19T01:44:09.789Z,12.68
2022-08-19T01:46:49.657Z,13.05
2022-08-19T01:49:19.737Z,13.65
2022-08-19T01:51:48.357Z,15.23
2022-08-19T01:54:23.185Z,17.58
2022-08-19T01:56:56.988Z,19.00
2022-08-19T01:59:25.892Z,19.38
2022-08-19T02:01:54.199Z,19.77
2022-08-19T02:04:24.406Z,20.58
2022-08-19T02:06:52.774Z,21.20
2022-08-19T02:09:22.526Z,22.20
2022-08-19T02:11:50.862Z,22.45
2022-08-19T02:14:19.303Z,25.08
2022-08-19T02:16:47.582Z,22.75
2022-08-19T02:19:15.865Z,23.23
2022-08-19T02:21:44.616Z,22.73
2022-08-19T02:24:13.193Z,21.73
2022-08-19T02:26:42.874Z,20.17
2022-08-19T02:29:11.151Z,21.23
2022-08-19T02:31:39.588Z,19.73
2022-08-19T02:34:07.952Z,20.23
2022-08-19T02:36:36.318Z,19.77
2022-08-19T02:39:10.017Z,19.48
2022-08-19T02:41:38.396Z,18.65
2022-08-19T02:44:30.589Z,18.85
2022-08-19T02:46:56.564Z,20.25
2022-08-19T02:49:24.933Z,18.85
2022-08-19T02:51:53.202Z,19.55
2022-08-19T02:54:21.515Z,18.80
2022-08-19T02:56:50.214Z,20.67
2022-08-19T02:59:20.174Z,20.17
2022-08-19T03:01:51.213Z,20.17
2022-08-19T03:04:20.402Z,19.17
2022-08-19T03:06:49.377Z,20.70
2022-08-19T03:09:18.024Z,18.95
2022-08-19T03:11:46.404Z,19.60
2022-08-19T03:14:16.912Z,20.08
2022-08-19T03:16:49.318Z,20.45
2022-08-19T03:19:19.798Z,21.05
2022-08-19T03:21:48.637Z,21.33
2022-08-19T03:24:17.272Z,22.05
2022-08-19T03:26:47.350Z,21.90
2022-08-19T03:29:15.909Z,24.30
2022-08-19T03:31:59.566Z,23.50
2022-08-19T03:34:29.491Z,24.15
2022-08-19T03:36:58.550Z,24.42
2022-08-19T03:39:27.752Z,26.55
2022-08-19T03:42:38.373Z,26.60
2022-08-19T03:44:46.686Z,28.05
2022-08-19T03:47:17.915Z,27.95
2022-08-19T03:49:47.402Z,28.60
2022-08-19T03:52:16.619Z,30.08
2022-08-19T03:54:44.989Z,30.55
2022-08-19T03:57:13.316Z,31.27
2022-08-19T03:59:41.867Z,31.88
2022-08-19T04:02:11.494Z,32.88
2022-08-19T04:04:42.018Z,32.83
2022-08-19T04:07:11.096Z,32.40
2022-08-19T04:09:39.437Z,31.88
2022-08-19T04:12:07.980Z,31.77
2022-08-19T04:14:36.789Z,32.75
2022-08-19T04:17:06.634Z,33.58
2022-08-19T04:19:35.257Z,31.40
2022-08-19T04:22:05.473Z,31.33
2022-08-19T04:24:33.935Z,31.60
2022-08-19T04:27:03.581Z,32.15
2022-08-19T04:29:32.007Z,32.47
2022-08-19T04:32:09.214Z,29.40
2022-08-19T04:35:01.214Z,28.23
2022-08-19T04:37:29.554Z,28.38
2022-08-19T04:40:21.640Z,29.48
2022-08-19T04:42:50.003Z,28.05
2022-08-19T04:45:18.411Z,26.90
2022-08-19T04:47:58.190Z,27.52
2022-08-19T04:50:28.207Z,27.75
2022-08-19T04:52:58.096Z,26.58
2022-08-19T04:55:27.530Z,26.27
2022-08-19T04:57:55.963Z,26.13
2022-08-19T05:00:24.422Z,24.80
2022-08-19T05:02:52.973Z,27.77
2022-08-19T05:05:21.853Z,25.63
2022-08-19T05:07:50.189Z,26.08
2022-08-19T05:10:20.128Z,26.02
2022-08-19T05:12:48.610Z,25.73
2022-08-19T05:15:17.142Z,25.15
2022-08-19T05:18:05.549Z,25.65
2022-08-19T05:20:51.860Z,23.77
2022-08-19T05:23:22.831Z,25.15
2022-08-19T05:25:52.886Z,24.33
2022-08-19T05:28:21.651Z,23.70
2022-08-19T05:30:51.709Z,22.73
2022-08-19T05:33:20.349Z,23.70
2022-08-19T05:35:49.327Z,23.30
2022-08-19T05:38:18.022Z,21.92
2022-08-19T05:40:49.874Z,20.95
2022-08-19T05:43:19.747Z,21.50
2022-08-19T05:45:48.361Z,22.77
2022-08-19T05:48:21.589Z,22.80
2022-08-19T05:50:51.247Z,22.60
2022-08-19T05:53:19.676Z,22.02
2022-08-19T05:55:48.006Z,21.52
2022-08-19T05:58:16.289Z,22.15
2022-08-19T06:00:47.129Z,21.30
2022-08-19T06:03:15.405Z,21.83
2022-08-19T06:05:51.794Z,23.13
2022-08-19T06:08:33.851Z,20.65
2022-08-19T06:11:14.229Z,20.73
2022-08-19T06:13:42.618Z,20.20
2022-08-19T06:16:12.274Z,21.05
2022-08-19T06:18:40.547Z,20.98
2022-08-19T06:21:08.869Z,20.75
2022-08-19T06:23:37.477Z,20.35
2022-08-19T06:26:05.896Z,19.95
2022-08-19T06:28:34.547Z,19.63
2022-08-19T06:31:08.424Z,19.95
2022-08-19T06:33:40.709Z,18.67
2022-08-19T06:36:11.019Z,19.13
2022-08-19T06:38:39.670Z,19.40
2022-08-19T06:41:08.359Z,18.48
2022-08-19T06:43:41.218Z,17.98
2022-08-19T06:46:14.861Z,19.15
2022-08-19T06:48:45.882Z,18.45
2022-08-19T06:51:19.148Z,18.88
2022-08-19T06:53:48.097Z,18.73
2022-08-19T06:56:17.953Z,17.80
2022-08-19T06:58:47.435Z,17.50
2022-08-19T07:01:16.125Z,18.05
2022-08-19T07:03:47.482Z,18.23
2022-08-19T07:06:41.155Z,17.33
2022-08-19T07:09:07.817Z,16.88
2022-08-19T07:11:36.144Z,16.58
2022-08-19T07:14:05.152Z,15.60
2022-08-19T07:16:33.461Z,17.02
2022-08-19T07:19:10.687Z,15.82
2022-08-19T07:21:44.379Z,16.08
2022-08-19T07:24:13.205Z,15.77
2022-08-19T07:26:42.433Z,15.40
2022-08-19T07:29:11.431Z,15.73
2022-08-19T07:31:40.071Z,14.82
2022-08-19T07:34:11.634Z,14.85
2022-08-19T07:36:42.377Z,13.90
2022-08-19T07:39:11.931Z,15.15
2022-08-19T07:41:40.295Z,13.20
2022-08-19T07:44:09.405Z,13.35
2022-08-19T07:46:39.264Z,12.75
2022-08-19T07:49:08.276Z,13.05
2022-08-19T07:51:37.945Z,12.80
2022-08-19T07:54:06.950Z,12.23
2022-08-19T07:56:35.253Z,11.77
2022-08-19T07:59:03.544Z,11.93
2022-08-19T08:01:32.040Z,11.95
2022-08-19T08:04:18.120Z,10.15
2022-08-19T08:07:05.423Z,8.40
2022-08-19T08:09:35.943Z,6.38
2022-08-19T08:12:32.981Z,6.20
2022-08-19T08:14:59.967Z,6.28
2022-08-19T08:17:48.455Z,5.53
2022-08-19T08:20:17.688Z,5.97
2022-08-19T08:23:05.384Z,5.90
2022-08-19T08:25:34.212Z,6.38
2022-08-19T08:28:02.827Z,6.80
2022-08-19T08:30:33.386Z,6.70
2022-08-19T08:33:02.816Z,6.40
2022-08-19T08:35:31.232Z,5.55
2022-08-19T08:38:01.119Z,5.35
2022-08-19T08:40:31.604Z,4.90
2022-08-19T08:45:33.037Z,5.30
2022-08-19T08:48:22.046Z,5.22
2022-08-19T08:50:53.748Z,5.15
2022-08-19T08:53:29.157Z,5.97
2022-08-19T08:56:01.427Z,5.30
2022-08-19T08:58:34.020Z,5.40
2022-08-19T09:01:02.575Z,6.57
2022-08-19T09:03:31.820Z,5.18
2022-08-19T09:06:03.249Z,5.68
2022-08-19T09:08:38.207Z,5.82
2022-08-19T09:11:09.528Z,5.22
2022-08-19T09:13:45.673Z,4.95
2022-08-19T09:16:15.892Z,3.90
2022-08-19T09:18:44.904Z,4.47
2022-08-19T09:21:14.052Z,3.35
2022-08-19T09:23:44.382Z,3.80
2022-08-19T09:26:16.504Z,3.88
2022-08-19T09:28:48.826Z,3.40
2022-08-19T09:31:18.092Z,3.45
2022-08-19T09:33:46.358Z,3.08
2022-08-19T09:36:21.790Z,2.95
2022-08-19T09:39:04.412Z,3.40
2022-08-19T09:41:47.685Z,2.90
2022-08-19T09:44:18.269Z,3.10
2022-08-19T09:46:48.341Z,3.25
2022-08-19T09:49:18.320Z,3.22
2022-08-19T09:51:51.156Z,3.47
2022-08-19T09:54:23.772Z,3.85
2022-08-19T09:56:53.906Z,3.30
2022-08-19T09:59:22.484Z,3.38
2022-08-19T10:01:50.797Z,4.15
2022-08-19T10:04:20.507Z,4.15
2022-08-19T10:06:53.433Z,3.50
2022-08-19T10:09:34.001Z,3.92
2022-08-19T10:12:03.732Z,2.97
2022-08-19T10:14:32.261Z,3.28
2022-08-19T10:17:01.365Z,2.80
2022-08-19T10:19:53.385Z,2.47
2022-08-19T10:22:25.715Z,3.53
2022-08-19T10:24:56.336Z,2.72
2022-08-19T10:27:26.312Z,2.30
2022-08-19T10:29:54.938Z,2.30
2022-08-19T10:32:34.008Z,1.98
2022-08-19T10:35:02.850Z,2.00
2022-08-19T10:37:34.435Z,1.80
2022-08-19T10:40:06.013Z,2.05
2022-08-19T10:42:34.640Z,1.90
2022-08-19T10:45:02.990Z,1.98
2022-08-19T10:47:33.379Z,2.22
2022-08-19T10:50:19.401Z,2.00
2022-08-19T10:52:50.793Z,2.10
2022-08-19T10:55:39.323Z,1.90
2022-08-19T10:58:12.491Z,2.15
2022-08-19T11:00:41.440Z,2.40
2022-08-19T11:03:09.815Z,2.15
2022-08-19T11:05:40.600Z,2.00
2022-08-19T11:08:23.747Z,1.80
2022-08-19T11:11:02.087Z,2.17
2022-08-19T11:13:30.739Z,1.85
2022-08-19T11:16:02.833Z,2.38
2022-08-19T11:18:35.072Z,2.30
2022-08-19T11:21:08.392Z,2.17
2022-08-19T11:23:37.025Z,2.33
2022-08-19T11:26:06.813Z,2.00
2022-08-19T11:28:35.238Z,2.00
2022-08-19T11:31:04.320Z,2.30
2022-08-19T11:33:33.594Z,2.40
2022-08-19T11:36:02.126Z,2.33
2022-08-19T11:38:31.406Z,2.67
2022-08-19T11:41:00.544Z,2.40
2022-08-19T11:43:32.386Z,2.00
2022-08-19T11:46:07.805Z,2.40
2022-08-19T11:48:36.112Z,2.40
2022-08-19T11:51:07.460Z,2.38
2022-08-19T11:53:36.148Z,2.33
2022-08-19T11:56:04.807Z,2.58
2022-08-19T11:58:35.106Z,2.33
2022-08-19T12:01:07.714Z,2.47
2022-08-19T12:03:36.586Z,2.80
2022-08-19T12:06:06.451Z,2.40
2022-08-19T12:08:34.861Z,2.47
2022-08-19T12:11:03.208Z,2.80
2022-08-19T12:13:31.689Z,3.15
2022-08-19T12:16:01.422Z,2.70
2022-08-19T12:18:29.779Z,2.80
2022-08-19T12:20:58.206Z,3.33
2022-08-19T12:23:26.467Z,2.80
2022-08-19T12:25:55.530Z,2.60
2022-08-19T12:28:25.198Z,2.40
2022-08-19T12:30:54.092Z,2.53
2022-08-19T12:33:25.990Z,2.42
2022-08-19T12:35:54.836Z,3.00
2022-08-19T12:38:25.133Z,2.63
2022-08-19T12:40:57.122Z,2.42
2022-08-19T12:43:28.256Z,2.22
2022-08-19T12:45:56.552Z,2.13
2022-08-19T12:48:33.164Z,2.45
2022-08-19T12:51:02.968Z,2.50
2022-08-19T12:53:31.288Z,2.25
2022-08-19T12:56:00.764Z,2.38
2022-08-19T12:58:29.307Z,2.45
2022-08-19T13:00:57.806Z,2.30
2022-08-19T13:03:30.274Z,2.65
2022-08-19T13:05:59.463Z,2.08
2022-08-19T13:08:27.720Z,1.90
2022-08-19T13:10:56.521Z,1.90
2022-08-19T13:13:26.933Z,1.45
2022-08-19T13:15:55.302Z,1.70
2022-08-19T13:18:24.979Z,1.73
2022-08-19T13:20:54.626Z,1.80
2022-08-19T13:23:22.921Z,1.80
2022-08-19T13:25:58.191Z,1.95
2022-08-19T13:28:28.974Z,1.83
2022-08-19T13:31:15.286Z,1.50
2022-08-19T13:33:43.648Z,1.45
2022-08-19T13:36:13.267Z,1.20
2022-08-19T13:38:41.534Z,1.20
2022-08-19T13:41:14.412Z,1.60
2022-08-19T13:43:43.266Z,1.60
2022-08-19T13:46:14.892Z,1.30
2022-08-19T13:48:43.687Z,1.35
2022-08-19T13:51:13.316Z,1.95
2022-08-19T13:53:46.272Z,1.80
2022-08-19T13:56:16.982Z,1.63
2022-08-19T13:58:45.436Z,1.95
2022-08-19T14:01:13.871Z,1.70
2022-08-19T14:03:42.185Z,2.10
2022-08-19T14:06:10.520Z,1.33
2022-08-19T14:08:46.005Z,1.60
2022-08-19T14:11:14.591Z,1.75
2022-08-19T14:13:42.948Z,1.75
2022-08-19T14:16:12.085Z,1.90
2022-08-19T14:18:40.702Z,1.75
2022-08-19T14:21:09.196Z,1.90
2022-08-19T14:23:38.038Z,2.05
2022-08-19T14:26:08.368Z,1.70
2022-08-19T14:28:36.712Z,1.35
2022-08-19T14:31:05.119Z,1.80
2022-08-19T14:33:33.804Z,2.08
2022-08-19T14:36:02.465Z,1.77
2022-08-19T14:38:32.444Z,2.30
2022-08-19T14:41:10.131Z,1.80
2022-08-19T14:43:39.389Z,1.83
2022-08-19T14:46:08.906Z,2.33
2022-08-19T14:48:40.931Z,1.80
2022-08-19T14:51:10.118Z,1.50
2022-08-19T14:53:38.384Z,1.77
2022-08-19T14:56:11.652Z,1.70
2022-08-19T14:58:41.191Z,2.30
2022-08-19T15:01:10.082Z,2.35
2022-08-19T15:03:42.217Z,1.80
2022-08-19T15:06:12.642Z,1.60
2022-08-19T15:08:42.163Z,1.83
2022-08-19T15:11:12.437Z,1.30
2022-08-19T15:13:41.245Z,1.65
2022-08-19T15:16:17.647Z,1.10
2022-08-19T15:18:47.090Z,1.30
2022-08-19T15:21:26.953Z,1.25
2022-08-19T15:23:56.340Z,1.00
2022-08-19T15:26:27.141Z,1.08
2022-08-19T15:28:55.425Z,0.80
2022-08-19T15:31:27.960Z,1.10
2022-08-19T15:33:58.202Z,1.05
2022-08-19T15:36:27.241Z,1.20
2022-08-19T15:38:55.575Z,1.02
2022-08-19T15:41:25.957Z,1.30
2022-08-19T15:43:56.872Z,1.05
2022-08-19T15:46:25.954Z,1.20
2022-08-19T15:48:57.261Z,1.40
2022-08-19T15:51:30.312Z,1.00
2022-08-19T15:53:58.849Z,1.00
2022-08-19T15:56:47.438Z,0.90
2022-08-19T15:59:46.854Z,0.88
2022-08-19T16:02:46.291Z,0.90
2022-08-19T16:05:34.495Z,0.90
2022-08-19T16:08:02.974Z,1.00
2022-08-19T16:10:31.349Z,0.70
2022-08-19T16:13:00.089Z,0.85
2022-08-19T16:15:31.137Z,1.02
2022-08-19T16:18:04.288Z,1.33
2022-08-19T16:20:33.077Z,1.42
2022-08-19T16:23:05.008Z,1.20
2022-08-19T16:25:33.504Z,1.50
2022-08-19T16:28:07.146Z,1.30
2022-08-19T16:30:38.613Z,1.17
2022-08-19T16:33:06.980Z,1.30
2022-08-19T16:35:35.309Z,1.60
2022-08-19T16:38:03.669Z,1.58
2022-08-19T16:40:32.082Z,1.40
2022-08-19T16:43:00.549Z,1.20
2022-08-19T16:45:28.848Z,1.45
2022-08-19T16:47:58.556Z,1.88
2022-08-19T16:50:47.747Z,2.00
2022-08-19T16:53:15.528Z,2.03
2022-08-19T16:55:44.601Z,2.20
2022-08-19T16:58:12.855Z,2.38
2022-08-19T17:00:41.156Z,2.53
2022-08-19T17:03:14.945Z,2.60
2022-08-19T17:05:44.045Z,2.45
2022-08-19T17:08:12.378Z,2.10
2022-08-19T17:10:45.707Z,2.38
2022-08-19T17:13:25.587Z,2.15
2022-08-19T17:15:54.566Z,2.05
2022-08-19T17:18:25.911Z,2.13
2022-08-19T17:21:01.031Z,2.10
2022-08-19T17:23:44.311Z,2.33
2022-08-19T17:26:15.901Z,2.10
2022-08-19T17:28:47.349Z,2.70
2022-08-19T17:31:15.665Z,2.40
2022-08-19T17:33:48.121Z,2.72
2022-08-19T17:36:17.478Z,2.63
2022-08-19T17:38:45.771Z,2.53
2022-08-19T17:41:14.085Z,3.10
2022-08-19T17:43:43.789Z,3.25
2022-08-19T17:46:17.993Z,3.03
2022-08-19T17:48:52.149Z,2.97
2022-08-19T17:51:22.426Z,3.28
2022-08-19T17:53:51.711Z,2.70
2022-08-19T17:56:20.076Z,2.67
2022-08-19T17:58:57.893Z,3.38
2022-08-19T18:01:43.885Z,2.63
2022-08-19T18:04:21.007Z,2.40
2022-08-19T18:06:53.588Z,2.63
2022-08-19T18:09:24.692Z,2.10
2022-08-19T18:11:54.701Z,2.60
2022-08-19T18:14:33.045Z,4.03
2022-08-19T18:17:02.988Z,2.30
2022-08-19T18:19:41.460Z,2.05
2022-08-19T18:22:11.139Z,1.85
2022-08-19T18:24:41.135Z,1.60
2022-08-19T18:27:10.059Z,1.60
2022-08-19T18:29:40.229Z,1.88
2022-08-19T18:32:13.375Z,2.13
2022-08-19T18:34:44.006Z,2.35
2022-08-19T18:37:12.681Z,1.60
2022-08-19T18:40:07.210Z,2.20
2022-08-19T18:42:52.966Z,1.60
2022-08-19T18:45:38.728Z,1.50
2022-08-19T18:48:28.406Z,1.60
2022-08-19T18:50:59.374Z,1.73
2022-08-19T18:53:29.100Z,1.83
2022-08-19T18:55:57.842Z,1.70
2022-08-19T18:58:33.781Z,1.98
2022-08-19T19:01:03.703Z,2.08
2022-08-19T19:03:32.697Z,1.90
2022-08-19T19:06:03.664Z,1.70
2022-08-19T19:08:32.253Z,2.05
2022-08-19T19:11:05.054Z,1.90
2022-08-19T19:13:34.443Z,2.28
2022-08-19T19:16:03.387Z,2.35
2022-08-19T19:18:33.527Z,2.10
2022-08-19T19:21:03.701Z,2.35
2022-08-19T19:23:32.376Z,2.03
2022-08-19T19:26:01.020Z,2.00
2022-08-19T19:28:29.516Z,2.60
2022-08-19T19:30:59.599Z,2.13
2022-08-19T19:33:28.071Z,1.67
2022-08-19T19:35:56.481Z,1.92
2022-08-19T19:38:26.264Z,1.95
2022-08-19T19:40:54.703Z,2.00
2022-08-19T19:43:23.191Z,1.58
2022-08-19T19:45:52.194Z,1.80
2022-08-19T19:48:20.663Z,2.13
2022-08-19T19:50:54.187Z,1.92
2022-08-19T19:53:27.737Z,1.85
2022-08-19T19:55:58.956Z,1.83
2022-08-19T19:58:28.870Z,1.90
2022-08-19T20:00:58.649Z,2.28
2022-08-19T20:03:27.207Z,2.00
2022-08-19T20:05:58.283Z,2.28
2022-08-19T20:08:46.328Z,1.67
2022-08-19T20:11:16.619Z,1.92
2022-08-19T20:13:45.119Z,1.88
2022-08-19T20:16:13.515Z,1.83
2022-08-19T20:18:43.680Z,1.88
2022-08-19T20:21:12.332Z,2.00
2022-08-19T20:23:42.359Z,2.03
2022-08-19T20:26:26.734Z,1.92
2022-08-19T20:29:13.399Z,1.98
2022-08-19T20:31:57.521Z,2.17
2022-08-19T20:34:27.976Z,1.80
2022-08-19T20:36:56.657Z,2.10
2022-08-19T20:39:26.613Z,1.88
2022-08-19T20:41:56.515Z,2.03
2022-08-19T20:44:25.895Z,2.22
2022-08-19T20:46:57.586Z,2.20
2022-08-19T20:49:28.278Z,2.03
2022-08-19T20:51:58.557Z,1.83
2022-08-19T20:54:28.883Z,1.80
2022-08-19T20:56:57.273Z,1.58
2022-08-19T20:59:27.231Z,1.73
2022-08-19T21:01:56.524Z,2.08
2022-08-19T21:04:25.461Z,1.50
2022-08-19T21:06:54.895Z,1.48
2022-08-19T21:09:23.297Z,1.50
2022-08-19T21:11:53.260Z,1.50
2022-08-19T21:14:22.808Z,1.42
2022-08-19T21:16:51.191Z,1.40
2022-08-19T21:19:23.691Z,1.30
2022-08-19T21:21:52.509Z,2.58
2022-08-19T21:24:21.084Z,2.03
2022-08-19T21:26:51.456Z,1.50
2022-08-19T21:29:21.394Z,1.60
2022-08-19T21:31:50.245Z,1.48
2022-08-19T21:34:18.777Z,1.38
2022-08-19T21:36:47.169Z,1.58
2022-08-19T21:39:15.578Z,1.65
2022-08-19T21:41:43.991Z,1.50
2022-08-19T21:44:12.321Z,2.08
2022-08-19T21:46:42.442Z,1.50
2022-08-19T21:49:11.796Z,2.00
2022-08-19T21:51:40.172Z,1.30
2022-08-19T21:54:08.746Z,1.70
2022-08-19T21:56:45.096Z,1.35
2022-08-19T21:59:13.398Z,1.40
2022-08-19T22:01:48.245Z,1.60
2022-08-19T22:04:41.145Z,1.58
2022-08-19T22:07:14.029Z,1.38
2022-08-19T22:09:42.766Z,1.48
2022-08-19T22:12:12.264Z,1.27
2022-08-19T22:14:43.680Z,1.77
2022-08-19T22:17:23.409Z,1.77
2022-08-19T22:19:52.679Z,1.50
2022-08-19T22:22:24.093Z,1.40
2022-08-19T22:24:52.683Z,1.60
2022-08-19T22:27:21.538Z,1.67
2022-08-19T22:29:52.649Z,1.80
2022-08-19T22:32:28.091Z,1.80
2022-08-19T22:34:58.800Z,1.50
2022-08-19T22:37:27.673Z,1.17
2022-08-19T22:39:56.342Z,1.63
2022-08-19T22:42:25.312Z,1.38
2022-08-19T22:45:00.614Z,1.60
2022-08-19T22:47:34.286Z,1.40
2022-08-19T22:50:08.371Z,1.20
2022-08-19T22:52:52.029Z,1.27
2022-08-19T22:55:20.937Z,1.08
2022-08-19T22:57:49.312Z,1.27
2022-08-19T23:00:19.037Z,1.42
2022-08-19T23:02:51.670Z,1.50
2022-08-19T23:05:21.875Z,1.80
2022-08-19T23:07:52.910Z,1.58
2022-08-19T23:10:26.695Z,1.48
2022-08-19T23:12:57.755Z,1.70
2022-08-19T23:15:27.060Z,1.38
2022-08-19T23:17:58.049Z,1.70
2022-08-19T23:20:27.611Z,1.70
2022-08-19T23:22:56.488Z,1.77
2022-08-19T23:25:26.287Z,1.40
2022-08-19T23:28:14.990Z,1.90
2022-08-19T23:30:44.950Z,1.45
2022-08-19T23:33:21.791Z,1.40
2022-08-19T23:35:51.725Z,1.58
2022-08-19T23:38:22.629Z,1.58
2022-08-19T23:40:51.671Z,1.70
2022-08-19T23:43:24.317Z,1.60
2022-08-19T23:45:57.400Z,1.60
2022-08-19T23:48:28.390Z,1.95
2022-08-19T23:50:57.449Z,2.03
2022-08-19T23:53:25.926Z,1.98
2022-08-19T23:55:54.877Z,2.20
2022-08-19T23:58:23.436Z,2.40
